sensor_id;sensor_type;location;lat;lon;timestamp;pressure;altitude;pressure_sealevel;temperature;humidity
10135;BME280;5107;48.850;8.924;2024-03-25T00:01:21;96002.56;;;5.44;78.47
10135;BME280;5107;48.850;8.924;2024-03-25T00:03:46;96000.63;;;5.46;78.57
10135;BME280;5107;48.850;8.924;2024-03-25T00:06:11;96004.38;;;5.44;79.02
10135;BME280;5107;48.850;8.924;2024-03-25T00:08:37;96001.09;;;5.42;78.59
10135;BME280;5107;48.850;8.924;2024-03-25T00:11:02;96002.56;;;5.44;78.56
10135;BME280;5107;48.850;8.924;2024-03-25T00:13:27;96003.56;;;5.43;79.36
10135;BME280;5107;48.850;8.924;2024-03-25T00:15:53;95997.00;;;5.39;78.56
10135;BME280;5107;48.850;8.924;2024-03-25T00:18:18;95997.50;;;5.34;78.89
10135;BME280;5107;48.850;8.924;2024-03-25T00:20:43;95994.69;;;5.36;79.11
10135;BME280;5107;48.850;8.924;2024-03-25T00:23:09;96001.06;;;5.33;79.20
10135;BME280;5107;48.850;8.924;2024-03-25T00:25:34;95994.88;;;5.34;79.49
10135;BME280;5107;48.850;8.924;2024-03-25T00:27:59;95987.06;;;5.34;79.57
10135;BME280;5107;48.850;8.924;2024-03-25T00:30:25;95990.50;;;5.35;79.58
10135;BME280;5107;48.850;8.924;2024-03-25T00:32:50;95996.00;;;5.32;79.67
10135;BME280;5107;48.850;8.924;2024-03-25T00:35:15;95981.31;;;5.31;79.00
10135;BME280;5107;48.850;8.924;2024-03-25T00:37:41;95984.91;;;5.30;79.48
10135;BME280;5107;48.850;8.924;2024-03-25T00:40:07;95983.13;;;5.30;79.33
10135;BME280;5107;48.850;8.924;2024-03-25T00:42:32;95977.41;;;5.27;79.45
10135;BME280;5107;48.850;8.924;2024-03-25T00:44:58;95976.75;;;5.25;79.94
10135;BME280;5107;48.850;8.924;2024-03-25T00:47:23;95977.41;;;5.27;79.53
10135;BME280;5107;48.850;8.924;2024-03-25T00:49:49;95986.34;;;5.24;78.94
10135;BME280;5107;48.850;8.924;2024-03-25T00:52:14;95988.63;;;5.27;79.36
10135;BME280;5107;48.850;8.924;2024-03-25T00:54:39;95980.00;;;5.27;78.68
10135;BME280;5107;48.850;8.924;2024-03-25T00:57:05;95977.06;;;5.30;79.15
10135;BME280;5107;48.850;8.924;2024-03-25T00:59:30;95977.91;;;5.30;79.16
10135;BME280;5107;48.850;8.924;2024-03-25T01:01:55;95979.03;;;5.28;79.14
10135;BME280;5107;48.850;8.924;2024-03-25T01:04:21;95971.19;;;5.28;78.75
10135;BME280;5107;48.850;8.924;2024-03-25T01:06:46;95970.03;;;5.22;78.94
10135;BME280;5107;48.850;8.924;2024-03-25T01:09:11;95969.06;;;5.23;79.06
10135;BME280;5107;48.850;8.924;2024-03-25T01:11:38;95967.94;;;5.26;79.23
10135;BME280;5107;48.850;8.924;2024-03-25T01:14:03;95963.56;;;5.26;79.83
10135;BME280;5107;48.850;8.924;2024-03-25T01:16:28;95964.53;;;5.25;79.33
10135;BME280;5107;48.850;8.924;2024-03-25T01:18:54;95963.56;;;5.26;79.66
10135;BME280;5107;48.850;8.924;2024-03-25T01:21:19;95953.75;;;5.28;79.29
10135;BME280;5107;48.850;8.924;2024-03-25T01:23:44;95954.91;;;5.26;79.79
10135;BME280;5107;48.850;8.924;2024-03-25T01:26:10;95954.72;;;5.27;79.71
10135;BME280;5107;48.850;8.924;2024-03-25T01:28:35;95954.53;;;5.21;79.26
10135;BME280;5107;48.850;8.924;2024-03-25T01:31:01;95958.47;;;5.25;79.15
10135;BME280;5107;48.850;8.924;2024-03-25T01:33:26;95959.47;;;5.24;78.85
10135;BME280;5107;48.850;8.924;2024-03-25T01:35:51;95947.38;;;5.23;79.20
10135;BME280;5107;48.850;8.924;2024-03-25T01:38:17;95948.34;;;5.22;79.37
10135;BME280;5107;48.850;8.924;2024-03-25T01:40:42;95955.22;;;5.23;79.04
10135;BME280;5107;48.850;8.924;2024-03-25T01:43:07;95951.34;;;5.27;79.09
10135;BME280;5107;48.850;8.924;2024-03-25T01:45:34;95959.50;;;5.32;79.29
10135;BME280;5107;48.850;8.924;2024-03-25T01:48:06;95961.44;;;5.30;79.05
10135;BME280;5107;48.850;8.924;2024-03-25T01:50:35;95964.72;;;5.32;78.55
10135;BME280;5107;48.850;8.924;2024-03-25T01:53:02;95971.22;;;5.36;78.96
10135;BME280;5107;48.850;8.924;2024-03-25T01:55:29;95966.69;;;5.38;78.63
10135;BME280;5107;48.850;8.924;2024-03-25T01:57:56;95968.31;;;5.39;78.57
10135;BME280;5107;48.850;8.924;2024-03-25T02:00:22;95963.25;;;5.38;78.07
10135;BME280;5107;48.850;8.924;2024-03-25T02:02:50;95958.38;;;5.34;78.87
10135;BME280;5107;48.850;8.924;2024-03-25T02:05:16;95964.41;;;5.35;78.87
10135;BME280;5107;48.850;8.924;2024-03-25T02:07:43;95970.75;;;5.32;78.95
10135;BME280;5107;48.850;8.924;2024-03-25T02:10:09;95967.31;;;5.32;78.78
10135;BME280;5107;48.850;8.924;2024-03-25T02:12:41;95971.03;;;5.29;78.76
10135;BME280;5107;48.850;8.924;2024-03-25T02:15:08;95963.69;;;5.25;78.92
10135;BME280;5107;48.850;8.924;2024-03-25T02:17:34;95962.88;;;5.24;78.63
10135;BME280;5107;48.850;8.924;2024-03-25T02:20:00;95957.00;;;5.22;78.50
10135;BME280;5107;48.850;8.924;2024-03-25T02:22:25;95964.81;;;5.22;78.96
10135;BME280;5107;48.850;8.924;2024-03-25T02:24:52;95970.03;;;5.22;79.16
10135;BME280;5107;48.850;8.924;2024-03-25T02:27:18;95957.00;;;5.22;79.23
10135;BME280;5107;48.850;8.924;2024-03-25T02:29:43;95964.00;;;5.22;79.22
10135;BME280;5107;48.850;8.924;2024-03-25T02:32:11;95952.31;;;5.26;78.89
10135;BME280;5107;48.850;8.924;2024-03-25T02:34:39;95956.56;;;5.27;78.57
10135;BME280;5107;48.850;8.924;2024-03-25T02:37:04;95953.47;;;5.31;79.14
10135;BME280;5107;48.850;8.924;2024-03-25T02:39:29;95955.41;;;5.29;78.77
10135;BME280;5107;48.850;8.924;2024-03-25T02:41:56;95960.13;;;5.26;78.75
10135;BME280;5107;48.850;8.924;2024-03-25T02:44:22;95956.56;;;5.27;78.92
10135;BME280;5107;48.850;8.924;2024-03-25T02:46:48;95948.06;;;5.25;78.83
10135;BME280;5107;48.850;8.924;2024-03-25T02:49:14;95945.13;;;5.28;78.68
10135;BME280;5107;48.850;8.924;2024-03-25T02:51:40;95947.22;;;5.24;78.67
10135;BME280;5107;48.850;8.924;2024-03-25T02:54:06;95946.41;;;5.24;78.38
10135;BME280;5107;48.850;8.924;2024-03-25T02:56:34;95948.72;;;5.27;78.52
10135;BME280;5107;48.850;8.924;2024-03-25T02:59:00;95946.75;;;5.29;78.67
10135;BME280;5107;48.850;8.924;2024-03-25T03:01:25;95944.16;;;5.29;78.20
10135;BME280;5107;48.850;8.924;2024-03-25T03:03:50;95951.00;;;5.30;77.98
10135;BME280;5107;48.850;8.924;2024-03-25T03:06:16;95943.84;;;5.32;78.38
10135;BME280;5107;48.850;8.924;2024-03-25T03:08:41;95953.13;;;5.26;77.96
10135;BME280;5107;48.850;8.924;2024-03-25T03:11:06;95943.13;;;5.22;78.84
10135;BME280;5107;48.850;8.924;2024-03-25T03:13:32;95948.34;;;5.22;78.40
10135;BME280;5107;48.850;8.924;2024-03-25T03:15:57;95949.47;;;5.19;78.45
10135;BME280;5107;48.850;8.924;2024-03-25T03:18:22;95938.56;;;5.16;78.46
10135;BME280;5107;48.850;8.924;2024-03-25T03:20:48;95940.69;;;5.20;78.05
10135;BME280;5107;48.850;8.924;2024-03-25T03:23:14;95930.91;;;5.22;78.55
10135;BME280;5107;48.850;8.924;2024-03-25T03:25:40;95931.75;;;5.23;78.19
10135;BME280;5107;48.850;8.924;2024-03-25T03:28:06;95934.66;;;5.20;78.71
10135;BME280;5107;48.850;8.924;2024-03-25T03:30:31;95931.56;;;5.16;78.19
10135;BME280;5107;48.850;8.924;2024-03-25T03:32:56;95926.50;;;5.15;78.59
10135;BME280;5107;48.850;8.924;2024-03-25T03:35:21;95932.38;;;5.17;79.25
10135;BME280;5107;48.850;8.924;2024-03-25T03:37:47;95929.25;;;5.13;79.23
10135;BME280;5107;48.850;8.924;2024-03-25T03:40:12;95938.84;;;5.13;79.59
10135;BME280;5107;48.850;8.924;2024-03-25T03:42:39;95937.22;;;5.12;79.03
10135;BME280;5107;48.850;8.924;2024-03-25T03:45:05;95927.94;;;5.09;79.08
10135;BME280;5107;48.850;8.924;2024-03-25T03:47:30;95933.97;;;5.10;79.04
10135;BME280;5107;48.850;8.924;2024-03-25T03:49:56;95931.19;;;5.11;79.21
10135;BME280;5107;48.850;8.924;2024-03-25T03:52:22;95937.53;;;5.09;78.90
10135;BME280;5107;48.850;8.924;2024-03-25T03:54:47;95934.56;;;5.04;79.54
10135;BME280;5107;48.850;8.924;2024-03-25T03:57:13;95938.97;;;5.03;79.41
10135;BME280;5107;48.850;8.924;2024-03-25T03:59:38;95937.19;;;5.04;79.88
10135;BME280;5107;48.850;8.924;2024-03-25T04:02:03;95946.16;;;5.01;79.70
10135;BME280;5107;48.850;8.924;2024-03-25T04:04:29;95941.75;;;5.02;79.96
10135;BME280;5107;48.850;8.924;2024-03-25T04:06:54;95955.44;;;5.04;79.85
10135;BME280;5107;48.850;8.924;2024-03-25T04:09:20;95946.63;;;5.05;80.29
10135;BME280;5107;48.850;8.924;2024-03-25T04:11:45;95948.63;;;5.11;80.46
10135;BME280;5107;48.850;8.924;2024-03-25T04:14:11;95951.59;;;5.16;79.91
10135;BME280;5107;48.850;8.924;2024-03-25T04:16:36;95949.81;;;5.16;79.70
10135;BME280;5107;48.850;8.924;2024-03-25T04:19:01;95950.91;;;5.14;79.96
10135;BME280;5107;48.850;8.924;2024-03-25T04:21:27;95940.50;;;5.14;80.33
10135;BME280;5107;48.850;8.924;2024-03-25T04:23:52;95941.63;;;5.11;79.87
10135;BME280;5107;48.850;8.924;2024-03-25T04:26:18;95938.03;;;5.12;80.29
10135;BME280;5107;48.850;8.924;2024-03-25T04:28:43;95932.53;;;5.15;79.95
10135;BME280;5107;48.850;8.924;2024-03-25T04:31:08;95938.25;;;5.19;79.84
10135;BME280;5107;48.850;8.924;2024-03-25T04:33:34;95935.66;;;5.19;80.41
10135;BME280;5107;48.850;8.924;2024-03-25T04:36:00;95946.72;;;5.21;79.71
10135;BME280;5107;48.850;8.924;2024-03-25T04:38:25;95943.78;;;5.16;80.18
10135;BME280;5107;48.850;8.924;2024-03-25T04:40:50;95935.47;;;5.20;80.78
10135;BME280;5107;48.850;8.924;2024-03-25T04:43:16;95937.25;;;5.20;80.61
10135;BME280;5107;48.850;8.924;2024-03-25T04:45:41;95937.44;;;5.18;80.70
10135;BME280;5107;48.850;8.924;2024-03-25T04:48:07;95940.69;;;5.20;80.65
10135;BME280;5107;48.850;8.924;2024-03-25T04:50:35;95941.97;;;5.16;80.29
10135;BME280;5107;48.850;8.924;2024-03-25T04:53:00;95941.97;;;5.16;80.50
10135;BME280;5107;48.850;8.924;2024-03-25T04:55:26;95945.03;;;5.12;80.54
10135;BME280;5107;48.850;8.924;2024-03-25T04:57:51;95944.69;;;5.07;81.25
10135;BME280;5107;48.850;8.924;2024-03-25T05:00:17;95947.94;;;5.01;81.66
10135;BME280;5107;48.850;8.924;2024-03-25T05:02:43;95951.13;;;4.94;81.46
10135;BME280;5107;48.850;8.924;2024-03-25T05:05:08;95942.00;;;4.90;81.86
10135;BME280;5107;48.850;8.924;2024-03-25T05:07:36;95953.41;;;4.89;82.21
10135;BME280;5107;48.850;8.924;2024-03-25T05:10:02;95953.34;;;4.81;81.56
10135;BME280;5107;48.850;8.924;2024-03-25T05:12:27;95945.81;;;4.78;82.11
10135;BME280;5107;48.850;8.924;2024-03-25T05:14:58;95956.88;;;4.72;82.26
10135;BME280;5107;48.850;8.924;2024-03-25T05:17:23;95959.75;;;4.69;82.56
10135;BME280;5107;48.850;8.924;2024-03-25T05:19:48;95954.72;;;4.68;82.57
10135;BME280;5107;48.850;8.924;2024-03-25T05:22:14;95963.66;;;4.65;82.62
10135;BME280;5107;48.850;8.924;2024-03-25T05:24:39;95956.13;;;4.62;82.93
10135;BME280;5107;48.850;8.924;2024-03-25T05:27:05;95960.03;;;4.58;83.53
10135;BME280;5107;48.850;8.924;2024-03-25T05:29:30;95966.06;;;4.58;83.84
10135;BME280;5107;48.850;8.924;2024-03-25T05:32:00;95958.09;;;4.60;84.30
10135;BME280;5107;48.850;8.924;2024-03-25T05:34:26;95959.94;;;4.68;83.64
10135;BME280;5107;48.850;8.924;2024-03-25T05:36:52;95965.84;;;4.78;83.46
10135;BME280;5107;48.850;8.924;2024-03-25T05:39:17;95968.50;;;4.86;82.69
10135;BME280;5107;48.850;8.924;2024-03-25T05:41:43;95987.19;;;4.99;82.43
10135;BME280;5107;48.850;8.924;2024-03-25T05:44:09;95976.81;;;5.07;82.25
10135;BME280;5107;48.850;8.924;2024-03-25T05:46:34;95981.91;;;5.17;81.50
10135;BME280;5107;48.850;8.924;2024-03-25T05:49:03;95980.91;;;5.10;80.92
10135;BME280;5107;48.850;8.924;2024-03-25T05:51:29;95975.63;;;5.02;81.23
10135;BME280;5107;48.850;8.924;2024-03-25T05:53:55;95977.56;;;5.00;82.20
10135;BME280;5107;48.850;8.924;2024-03-25T05:56:20;95976.84;;;4.89;82.15
10135;BME280;5107;48.850;8.924;2024-03-25T05:58:46;95975.50;;;4.85;82.10
10135;BME280;5107;48.850;8.924;2024-03-25T06:01:11;95973.94;;;4.92;82.01
10135;BME280;5107;48.850;8.924;2024-03-25T06:03:37;95974.47;;;5.30;80.96
10135;BME280;5107;48.850;8.924;2024-03-25T06:06:02;95979.84;;;5.28;79.86
10135;BME280;5107;48.850;8.924;2024-03-25T06:08:28;95979.25;;;5.09;80.33
10135;BME280;5107;48.850;8.924;2024-03-25T06:10:54;95973.63;;;4.95;81.57
10135;BME280;5107;48.850;8.924;2024-03-25T06:13:20;95969.25;;;5.30;80.87
10135;BME280;5107;48.850;8.924;2024-03-25T06:15:46;95968.13;;;5.66;78.97
10135;BME280;5107;48.850;8.924;2024-03-25T06:18:11;95967.66;;;5.87;77.85
10135;BME280;5107;48.850;8.924;2024-03-25T06:20:37;95965.47;;;6.00;77.28
10135;BME280;5107;48.850;8.924;2024-03-25T06:23:02;95963.06;;;6.47;77.17
10135;BME280;5107;48.850;8.924;2024-03-25T06:25:29;95971.88;;;6.63;75.18
10135;BME280;5107;48.850;8.924;2024-03-25T06:27:55;95971.69;;;6.89;74.29
10135;BME280;5107;48.850;8.924;2024-03-25T06:30:20;95973.03;;;6.93;73.36
10135;BME280;5107;48.850;8.924;2024-03-25T06:33:04;95975.63;;;6.93;73.02
10135;BME280;5107;48.850;8.924;2024-03-25T06:35:49;95976.47;;;6.77;73.73
10135;BME280;5107;48.850;8.924;2024-03-25T06:38:14;95977.72;;;7.05;72.83
10135;BME280;5107;48.850;8.924;2024-03-25T06:40:39;95983.59;;;7.15;72.28
10135;BME280;5107;48.850;8.924;2024-03-25T06:43:05;95988.09;;;7.46;71.25
10135;BME280;5107;48.850;8.924;2024-03-25T06:45:31;95990.56;;;7.39;71.19
10135;BME280;5107;48.850;8.924;2024-03-25T06:47:57;95990.47;;;7.08;71.66
10135;BME280;5107;48.850;8.924;2024-03-25T06:50:23;95992.47;;;6.66;73.50
10135;BME280;5107;48.850;8.924;2024-03-25T06:52:49;95992.63;;;6.80;71.92
10135;BME280;5107;48.850;8.924;2024-03-25T06:55:15;96004.22;;;7.10;71.72
10135;BME280;5107;48.850;8.924;2024-03-25T06:57:41;96000.31;;;6.90;72.18
10135;BME280;5107;48.850;8.924;2024-03-25T07:00:06;96006.03;;;7.02;72.87
10135;BME280;5107;48.850;8.924;2024-03-25T07:02:36;96005.03;;;6.86;72.72
10135;BME280;5107;48.850;8.924;2024-03-25T07:05:01;96006.47;;;7.13;71.57
10135;BME280;5107;48.850;8.924;2024-03-25T07:07:26;96005.44;;;7.47;70.70
10135;BME280;5107;48.850;8.924;2024-03-25T07:09:52;96007.41;;;7.53;69.97
10135;BME280;5107;48.850;8.924;2024-03-25T07:12:17;96004.31;;;7.41;69.64
10135;BME280;5107;48.850;8.924;2024-03-25T07:14:43;95995.03;;;7.22;69.12
10135;BME280;5107;48.850;8.924;2024-03-25T07:17:08;95992.38;;;7.31;69.00
10135;BME280;5107;48.850;8.924;2024-03-25T07:19:33;95990.78;;;7.13;70.15
10135;BME280;5107;48.850;8.924;2024-03-25T07:21:59;95988.53;;;7.10;70.44
10135;BME280;5107;48.850;8.924;2024-03-25T07:24:24;95986.13;;;7.48;67.26
10135;BME280;5107;48.850;8.924;2024-03-25T07:26:49;95985.75;;;7.67;67.09
10135;BME280;5107;48.850;8.924;2024-03-25T07:29:16;95979.41;;;7.92;64.16
10135;BME280;5107;48.850;8.924;2024-03-25T07:31:41;95989.03;;;7.61;64.44
10135;BME280;5107;48.850;8.924;2024-03-25T07:34:07;95983.75;;;8.08;64.52
10135;BME280;5107;48.850;8.924;2024-03-25T07:36:32;95977.53;;;8.09;63.98
10135;BME280;5107;48.850;8.924;2024-03-25T07:39:00;95982.13;;;8.30;63.18
10135;BME280;5107;48.850;8.924;2024-03-25T07:41:25;95971.66;;;7.99;64.32
10135;BME280;5107;48.850;8.924;2024-03-25T07:43:51;95971.88;;;8.51;61.47
10135;BME280;5107;48.850;8.924;2024-03-25T07:46:16;95977.97;;;8.66;61.52
10135;BME280;5107;48.850;8.924;2024-03-25T07:48:41;95968.13;;;9.21;56.95
10135;BME280;5107;48.850;8.924;2024-03-25T07:51:07;95967.59;;;9.10;57.34
10135;BME280;5107;48.850;8.924;2024-03-25T07:53:32;95970.75;;;9.65;57.23
10135;BME280;5107;48.850;8.924;2024-03-25T07:55:58;95973.47;;;10.37;56.37
10135;BME280;5107;48.850;8.924;2024-03-25T07:58:24;95975.56;;;10.62;51.15
10135;BME280;5107;48.850;8.924;2024-03-25T08:00:49;95978.78;;;11.14;51.86
10135;BME280;5107;48.850;8.924;2024-03-25T08:03:15;95975.34;;;10.64;52.01
10135;BME280;5107;48.850;8.924;2024-03-25T08:05:40;95980.78;;;10.20;52.41
10135;BME280;5107;48.850;8.924;2024-03-25T08:08:06;95980.84;;;10.48;53.56
10135;BME280;5107;48.850;8.924;2024-03-25T08:10:31;95986.31;;;10.68;51.23
10135;BME280;5107;48.850;8.924;2024-03-25T08:12:57;95978.41;;;10.46;49.75
10135;BME280;5107;48.850;8.924;2024-03-25T08:15:22;95978.13;;;11.05;50.24
10135;BME280;5107;48.850;8.924;2024-03-25T08:17:47;95978.75;;;10.22;49.90
10135;BME280;5107;48.850;8.924;2024-03-25T08:20:12;95972.00;;;9.98;50.07
10135;BME280;5107;48.850;8.924;2024-03-25T08:22:38;95962.88;;;10.51;50.07
10135;BME280;5107;48.850;8.924;2024-03-25T08:25:03;95964.63;;;10.87;49.85
10135;BME280;5107;48.850;8.924;2024-03-25T08:27:29;95962.41;;;11.46;47.57
10135;BME280;5107;48.850;8.924;2024-03-25T08:29:55;95960.06;;;11.64;47.70
10135;BME280;5107;48.850;8.924;2024-03-25T08:32:20;95956.25;;;11.73;47.57
10135;BME280;5107;48.850;8.924;2024-03-25T08:34:48;95959.22;;;11.92;45.23
10135;BME280;5107;48.850;8.924;2024-03-25T08:37:14;95955.22;;;12.09;45.67
10135;BME280;5107;48.850;8.924;2024-03-25T08:39:39;95962.03;;;12.44;46.31
10135;BME280;5107;48.850;8.924;2024-03-25T08:42:05;95958.00;;;12.81;44.46
10135;BME280;5107;48.850;8.924;2024-03-25T08:44:30;95956.97;;;11.89;44.48
10135;BME280;5107;48.850;8.924;2024-03-25T08:46:55;95954.03;;;11.70;43.90
10135;BME280;5107;48.850;8.924;2024-03-25T08:49:21;95950.41;;;11.37;45.38
10135;BME280;5107;48.850;8.924;2024-03-25T08:51:46;95949.13;;;11.61;46.96
10135;BME280;5107;48.850;8.924;2024-03-25T08:54:14;95956.31;;;12.34;44.98
10135;BME280;5107;48.850;8.924;2024-03-25T08:56:39;95947.22;;;11.83;44.31
10135;BME280;5107;48.850;8.924;2024-03-25T08:59:05;95945.72;;;12.14;44.58
10135;BME280;5107;48.850;8.924;2024-03-25T09:01:31;95945.59;;;12.55;43.04
10135;BME280;5107;48.850;8.924;2024-03-25T09:03:56;95941.75;;;12.58;43.92
10135;BME280;5107;48.850;8.924;2024-03-25T09:06:22;95938.72;;;13.01;42.69
10135;BME280;5107;48.850;8.924;2024-03-25T09:08:47;95934.22;;;13.54;41.66
10135;BME280;5107;48.850;8.924;2024-03-25T09:11:31;95943.81;;;13.28;41.30
10135;BME280;5107;48.850;8.924;2024-03-25T09:13:57;95939.34;;;13.03;42.35
10135;BME280;5107;48.850;8.924;2024-03-25T09:16:22;95940.97;;;12.84;43.38
10135;BME280;5107;48.850;8.924;2024-03-25T09:18:47;95934.44;;;12.73;42.85
10135;BME280;5107;48.850;8.924;2024-03-25T09:21:13;95938.94;;;12.86;42.93
10135;BME280;5107;48.850;8.924;2024-03-25T09:23:38;95934.66;;;13.24;42.85
10135;BME280;5107;48.850;8.924;2024-03-25T09:26:03;95931.56;;;13.54;41.18
10135;BME280;5107;48.850;8.924;2024-03-25T09:28:29;95928.44;;;13.77;41.94
10135;BME280;5107;48.850;8.924;2024-03-25T09:30:54;95921.28;;;13.19;40.90
10135;BME280;5107;48.850;8.924;2024-03-25T09:33:19;95910.38;;;12.02;44.17
10135;BME280;5107;48.850;8.924;2024-03-25T09:35:45;95910.50;;;11.81;44.00
10135;BME280;5107;48.850;8.924;2024-03-25T09:38:10;95902.28;;;11.22;45.13
10135;BME280;5107;48.850;8.924;2024-03-25T09:40:39;95900.69;;;10.93;45.42
10135;BME280;5107;48.850;8.924;2024-03-25T09:43:08;95896.50;;;10.71;46.41
10135;BME280;5107;48.850;8.924;2024-03-25T09:45:35;95901.31;;;10.95;45.83
10135;BME280;5107;48.850;8.924;2024-03-25T09:48:03;95896.09;;;11.01;44.61
10135;BME280;5107;48.850;8.924;2024-03-25T09:50:29;95889.03;;;11.43;44.76
10135;BME280;5107;48.850;8.924;2024-03-25T09:52:55;95886.50;;;11.63;44.33
10135;BME280;5107;48.850;8.924;2024-03-25T14:53:53;95393.59;;;13.33;37.88
10135;BME280;5107;48.850;8.924;2024-03-25T14:56:18;95399.84;;;13.39;38.01
10135;BME280;5107;48.850;8.924;2024-03-25T14:58:44;95385.47;;;13.35;38.57
10135;BME280;5107;48.850;8.924;2024-03-25T15:01:10;95390.66;;;12.98;39.57
10135;BME280;5107;48.850;8.924;2024-03-25T15:03:36;95386.25;;;12.92;38.75
10135;BME280;5107;48.850;8.924;2024-03-25T15:06:01;95376.22;;;13.01;38.94
10135;BME280;5107;48.850;8.924;2024-03-25T15:08:29;95372.94;;;13.05;39.87
10135;BME280;5107;48.850;8.924;2024-03-25T15:10:56;95372.44;;;12.90;40.54
10135;BME280;5107;48.850;8.924;2024-03-25T15:13:21;95363.50;;;12.91;40.12
10135;BME280;5107;48.850;8.924;2024-03-25T15:15:46;95364.59;;;12.83;39.88
10135;BME280;5107;48.850;8.924;2024-03-25T15:18:13;95363.75;;;12.65;40.06
10135;BME280;5107;48.850;8.924;2024-03-25T15:20:38;95352.06;;;12.79;40.57
10135;BME280;5107;48.850;8.924;2024-03-25T15:23:04;95349.88;;;12.94;41.60
10135;BME280;5107;48.850;8.924;2024-03-25T15:25:31;95349.22;;;12.99;40.87
10135;BME280;5107;48.850;8.924;2024-03-25T15:27:56;95345.00;;;13.16;40.35
10135;BME280;5107;48.850;8.924;2024-03-25T15:30:21;95342.59;;;13.14;39.94
10135;BME280;5107;48.850;8.924;2024-03-25T15:32:47;95340.28;;;13.00;39.28
10135;BME280;5107;48.850;8.924;2024-03-25T15:35:12;95340.22;;;12.88;39.40
10135;BME280;5107;48.850;8.924;2024-03-25T15:37:41;95328.03;;;12.87;39.40
10135;BME280;5107;48.850;8.924;2024-03-25T15:40:07;95333.63;;;12.97;39.18
10135;BME280;5107;48.850;8.924;2024-03-25T15:42:36;95324.84;;;12.78;38.39
10135;BME280;5107;48.850;8.924;2024-03-25T15:45:01;95321.75;;;12.63;38.32
10135;BME280;5107;48.850;8.924;2024-03-25T15:47:27;95321.69;;;12.70;38.33
10135;BME280;5107;48.850;8.924;2024-03-25T15:52:27;95315.28;;;12.59;38.18
10135;BME280;5107;48.850;8.924;2024-03-25T15:54:55;95304.72;;;12.59;38.22
10135;BME280;5107;48.850;8.924;2024-03-25T15:57:20;95310.91;;;12.71;38.80
10135;BME280;5107;48.850;8.924;2024-03-25T15:59:46;95304.84;;;12.89;38.70
10135;BME280;5107;48.850;8.924;2024-03-25T16:02:11;95300.31;;;12.96;37.52
10135;BME280;5107;48.850;8.924;2024-03-25T16:04:36;95298.69;;;12.95;38.91
10135;BME280;5107;48.850;8.924;2024-03-25T16:07:02;95302.44;;;12.87;38.99
10135;BME280;5107;48.850;8.924;2024-03-25T16:09:31;95300.44;;;12.83;39.31
10135;BME280;5107;48.850;8.924;2024-03-25T16:11:56;95296.56;;;12.85;39.29
10135;BME280;5107;48.850;8.924;2024-03-25T16:14:22;95293.50;;;12.88;39.08
10135;BME280;5107;48.850;8.924;2024-03-25T16:16:47;95289.53;;;12.79;39.19
10135;BME280;5107;48.850;8.924;2024-03-25T16:19:12;95287.81;;;12.67;38.76
10135;BME280;5107;48.850;8.924;2024-03-25T16:21:38;95286.41;;;12.46;38.88
10135;BME280;5107;48.850;8.924;2024-03-25T16:24:04;95284.66;;;12.33;39.03
10135;BME280;5107;48.850;8.924;2024-03-25T16:26:29;95269.22;;;12.37;39.29
10135;BME280;5107;48.850;8.924;2024-03-25T16:28:55;95272.97;;;12.23;39.53
10135;BME280;5107;48.850;8.924;2024-03-25T16:31:20;95268.50;;;12.23;40.23
10135;BME280;5107;48.850;8.924;2024-03-25T16:33:46;95262.44;;;12.23;39.29
10135;BME280;5107;48.850;8.924;2024-03-25T16:36:12;95253.56;;;12.17;39.32
10135;BME280;5107;48.850;8.924;2024-03-25T16:38:37;95250.78;;;12.12;37.98
10135;BME280;5107;48.850;8.924;2024-03-25T16:41:02;95246.19;;;12.01;38.96
10135;BME280;5107;48.850;8.924;2024-03-25T16:43:29;95244.22;;;11.90;39.93
10135;BME280;5107;48.850;8.924;2024-03-25T16:45:54;95244.53;;;11.75;40.40
10135;BME280;5107;48.850;8.924;2024-03-25T16:48:19;95242.47;;;11.84;40.53
10135;BME280;5107;48.850;8.924;2024-03-25T16:50:45;95244.16;;;11.71;40.12
10135;BME280;5107;48.850;8.924;2024-03-25T16:53:11;95235.19;;;11.72;39.76
10135;BME280;5107;48.850;8.924;2024-03-25T16:55:39;95238.34;;;11.63;40.00
10135;BME280;5107;48.850;8.924;2024-03-25T16:58:04;95231.22;;;11.63;40.21
10135;BME280;5107;48.850;8.924;2024-03-25T17:00:29;95238.34;;;11.56;40.35
10135;BME280;5107;48.850;8.924;2024-03-25T17:02:55;95239.38;;;11.55;40.75
10135;BME280;5107;48.850;8.924;2024-03-25T17:05:20;95232.13;;;11.51;41.02
10135;BME280;5107;48.850;8.924;2024-03-25T17:07:45;95242.25;;;11.47;41.51
10135;BME280;5107;48.850;8.924;2024-03-25T17:10:11;95232.22;;;11.31;42.00
10135;BME280;5107;48.850;8.924;2024-03-25T17:12:36;95232.31;;;11.18;42.56
10135;BME280;5107;48.850;8.924;2024-03-25T17:15:04;95238.66;;;11.03;42.84
10135;BME280;5107;48.850;8.924;2024-03-25T17:17:30;95231.00;;;10.95;42.77
10135;BME280;5107;48.850;8.924;2024-03-25T17:19:58;95236.25;;;10.95;43.16
10135;BME280;5107;48.850;8.924;2024-03-25T17:22:23;95235.44;;;10.95;43.82
10135;BME280;5107;48.850;8.924;2024-03-25T17:24:48;95230.63;;;10.85;43.69
10135;BME280;5107;48.850;8.924;2024-03-25T17:27:14;95235.50;;;10.75;44.01
10135;BME280;5107;48.850;8.924;2024-03-25T17:29:39;95232.91;;;10.69;44.04
10135;BME280;5107;48.850;8.924;2024-03-25T17:32:05;95233.31;;;10.59;44.01
10135;BME280;5107;48.850;8.924;2024-03-25T17:34:32;95234.75;;;10.55;44.45
10135;BME280;5107;48.850;8.924;2024-03-25T17:36:57;95229.31;;;10.50;44.75
10135;BME280;5107;48.850;8.924;2024-03-25T17:39:22;95220.00;;;10.41;45.09
10135;BME280;5107;48.850;8.924;2024-03-25T17:41:48;95221.25;;;10.32;45.70
10135;BME280;5107;48.850;8.924;2024-03-25T17:44:16;95214.78;;;10.21;45.67
10135;BME280;5107;48.850;8.924;2024-03-25T17:46:41;95216.00;;;10.12;45.94
10135;BME280;5107;48.850;8.924;2024-03-25T17:49:07;95218.03;;;10.03;46.04
10135;BME280;5107;48.850;8.924;2024-03-25T17:51:32;95217.00;;;9.98;46.14
10135;BME280;5107;48.850;8.924;2024-03-25T17:53:58;95218.44;;;9.94;46.03
10135;BME280;5107;48.850;8.924;2024-03-25T17:56:24;95216.81;;;9.86;46.62
10135;BME280;5107;48.850;8.924;2024-03-25T17:58:49;95213.41;;;9.79;46.25
10135;BME280;5107;48.850;8.924;2024-03-25T18:01:14;95216.00;;;9.66;46.03
10135;BME280;5107;48.850;8.924;2024-03-25T18:03:40;95210.31;;;9.56;46.13
10135;BME280;5107;48.850;8.924;2024-03-25T18:06:05;95213.38;;;9.52;45.64
10135;BME280;5107;48.850;8.924;2024-03-25T18:08:31;95212.75;;;9.44;46.08
10135;BME280;5107;48.850;8.924;2024-03-25T18:10:56;95207.47;;;9.37;45.63